Time;durP1;ratioP1;P1;durP2;ratioP2;P2;SDS_P1;SDS_P2;PMS_P1;PMS_P2;Temp;Humidity;BMP_temperature;BMP_pressure;BME280_temperature;BME280_humidity;BME280_pressure;Samples;Min_cycle;Max_cycle;Signal;HPM_P1;HPM_P2
2023/01/03 00:01:45;;;;;;;;;;;;;;;15.03;46.26;101766.05;102219;1329;73696;-83
2023/01/03 00:04:10;;;;;;;;;;;;;;;15.03;46.25;101766.93;102197;1330;62083;-83
2023/01/03 00:06:37;;;;;;;;;;;;;;;15.02;46.23;101768.02;102286;1330;62260;-83
2023/01/03 00:09:03;;;;;;;;;;;;;;;15.02;46.23;101769.79;102265;1326;61998;-83
2023/01/03 00:14:19;;;;;;;;;;;;;;;15.03;46.22;101774.56;102256;1325;75324;-83
2023/01/03 00:16:45;;;;;;;;;;;;;;;15.03;46.27;101776.70;102312;1330;62159;-82
2023/01/03 00:19:11;;;;;;;;;;;;;;;15.02;46.30;101774.23;102212;1329;61839;-82
2023/01/03 00:21:37;;;;;;;;;;;;;;;15.02;46.25;101775.48;102278;1332;60708;-83
2023/01/03 00:24:02;;;;;;;;;;;;;;;15.02;46.28;101775.11;102243;1326;62244;-83
2023/01/03 00:26:28;;;;;;;;;;;;;;;15.02;46.28;101770.34;102293;1327;62106;-83
2023/01/03 00:28:53;;;;;;;;;;;;;;;15.02;46.26;101770.69;102239;1332;62225;-83
2023/01/03 00:31:19;;;;;;;;;;;;;;;15.02;46.34;101765.73;102324;1325;62155;-82
2023/01/03 00:33:44;;;;;;;;;;;;;;;15.02;46.34;101764.49;102195;1332;62161;-82
2023/01/03 00:36:09;;;;;;;;;;;;;;;15.02;46.26;101765.92;102232;1331;62136;-82
2023/01/03 00:38:36;;;;;;;;;;;;;;;15.02;46.30;101767.85;102229;1326;62186;-82
2023/01/03 00:41:02;;;;;;;;;;;;;;;15.02;46.25;101767.67;102249;1333;62183;-83
2023/01/03 00:43:28;;;;;;;;;;;;;;;15.02;46.29;101766.61;102239;1332;62130;-83
2023/01/03 00:45:53;;;;;;;;;;;;;;;15.02;46.31;101766.09;102314;1325;60965;-83
2023/01/03 00:48:19;;;;;;;;;;;;;;;15.02;46.29;101764.86;102216;1327;74739;-82
2023/01/03 00:50:44;;;;;;;;;;;;;;;15.01;46.31;101761.13;102253;1329;62221;-82
2023/01/03 00:53:09;;;;;;;;;;;;;;;15.01;46.26;101758.67;102191;1332;62199;-83
2023/01/03 00:55:35;;;;;;;;;;;;;;;15.01;46.34;101759.55;102309;1329;62152;-83
2023/01/03 00:58:00;;;;;;;;;;;;;;;15.01;46.33;101756.02;102375;1317;62233;-82
2023/01/03 01:00:27;;;;;;;;;;;;;;;15.01;46.32;101751.94;102221;1329;61901;-82
2023/01/03 01:02:52;;;;;;;;;;;;;;;15.01;46.29;101749.64;102237;1330;62261;-83
2023/01/03 01:05:18;;;;;;;;;;;;;;;15.01;46.33;101741.84;102212;1327;62134;-83
2023/01/03 01:07:43;;;;;;;;;;;;;;;15.00;46.31;101741.50;102273;1326;62124;-82
2023/01/03 01:10:09;;;;;;;;;;;;;;;15.00;46.33;101737.61;102235;1319;60022;-82
2023/01/03 01:12:34;;;;;;;;;;;;;;;15.00;46.29;101739.90;102278;1326;62178;-82
2023/01/03 01:15:00;;;;;;;;;;;;;;;15.00;46.22;101736.55;102277;1323;60080;-82
2023/01/03 01:17:27;;;;;;;;;;;;;;;15.00;46.30;101732.83;102221;1332;60922;-82
2023/01/03 01:19:52;;;;;;;;;;;;;;;15.00;46.36;101735.83;102289;1329;62200;-82
2023/01/03 01:22:18;;;;;;;;;;;;;;;14.99;46.26;101730.17;102196;1332;62117;-83
2023/01/03 01:24:43;;;;;;;;;;;;;;;15.00;46.28;101725.73;102186;1329;62007;-83
2023/01/03 01:27:09;;;;;;;;;;;;;;;14.99;46.33;101723.09;102263;1326;62109;-83
2023/01/03 01:29:34;;;;;;;;;;;;;;;14.99;46.34;101718.12;102255;1321;61900;-83
2023/01/03 01:32:00;;;;;;;;;;;;;;;14.99;46.29;101720.61;102213;1329;62215;-83
2023/01/03 01:34:26;;;;;;;;;;;;;;;14.99;46.31;101714.75;102231;1318;62194;-83
2023/01/03 01:36:51;;;;;;;;;;;;;;;14.99;46.30;101711.92;102245;1332;62161;-83
2023/01/03 01:39:18;;;;;;;;;;;;;;;14.99;46.32;101707.85;102225;1317;62136;-83
2023/01/03 01:44:40;;;;;;;;;;;;;;;14.98;46.27;101707.17;102263;1333;76239;-82
2023/01/03 01:47:17;;;;;;;;;;;;;;;14.98;46.34;101705.20;102284;1324;62079;-83
2023/01/03 01:49:43;;;;;;;;;;;;;;;14.98;46.31;101702.02;102263;1326;60843;-82
2023/01/03 01:52:09;;;;;;;;;;;;;;;14.98;46.27;101702.38;102208;1330;62010;-83
2023/01/03 01:54:34;;;;;;;;;;;;;;;14.98;46.35;101697.42;102221;1332;62074;-83
2023/01/03 01:57:00;;;;;;;;;;;;;;;14.98;46.33;101694.40;102231;1324;62262;-83
2023/01/03 01:59:27;;;;;;;;;;;;;;;14.97;46.32;101693.55;102262;1332;62127;-83
2023/01/03 02:01:52;;;;;;;;;;;;;;;14.98;46.27;101691.39;102181;1333;62116;-82
2023/01/03 02:04:22;;;;;;;;;;;;;;;14.98;46.33;101690.70;102193;1328;62099;-83
2023/01/03 02:06:48;;;;;;;;;;;;;;;14.98;46.31;101683.25;102232;1332;75376;-83
2023/01/03 02:09:15;;;;;;;;;;;;;;;14.97;46.35;101681.50;102265;1329;62074;-83
2023/01/03 02:11:50;;;;;;;;;;;;;;;14.97;46.30;101679.19;102219;1331;61831;-83
2023/01/03 02:14:29;;;;;;;;;;;;;;;14.96;46.34;101673.52;102197;1332;72627;-82
2023/01/03 02:16:55;;;;;;;;;;;;;;;14.97;46.33;101671.05;102245;1334;75694;-83
2023/01/03 02:19:21;;;;;;;;;;;;;;;14.97;46.33;101668.92;102228;1329;62115;-82
2023/01/03 02:22:06;;;;;;;;;;;;;;;14.96;46.33;101668.20;102272;1329;62022;-83
2023/01/03 02:24:54;;;;;;;;;;;;;;;14.96;46.33;101669.64;102294;1333;71702;-83
2023/01/03 02:27:29;;;;;;;;;;;;;;;14.96;46.30;101671.95;102174;1327;76487;-83
2023/01/03 02:30:13;;;;;;;;;;;;;;;14.96;46.30;101672.13;102244;1329;62004;-82
2023/01/03 02:32:42;;;;;;;;;;;;;;;14.97;46.30;101672.46;102335;1332;62111;-83
2023/01/03 02:35:11;;;;;;;;;;;;;;;14.96;46.28;101674.61;102235;1327;73830;-83
2023/01/03 02:37:41;;;;;;;;;;;;;;;14.96;46.29;101677.80;102240;1332;76523;-83
2023/01/03 02:40:17;;;;;;;;;;;;;;;14.96;46.28;101673.38;102322;1332;62185;-83
2023/01/03 02:42:56;;;;;;;;;;;;;;;14.96;46.33;101675.48;102268;1330;61972;-83
2023/01/03 02:45:38;;;;;;;;;;;;;;;14.96;46.35;101678.86;102231;1332;73556;-83
2023/01/03 02:48:06;;;;;;;;;;;;;;;14.96;46.36;101678.16;102299;1329;75244;-83
2023/01/03 02:50:33;;;;;;;;;;;;;;;14.96;46.37;101681.69;102250;1332;62053;-83
2023/01/03 02:53:01;;;;;;;;;;;;;;;14.96;46.26;101682.23;102236;1326;62123;-84
2023/01/03 02:55:27;;;;;;;;;;;;;;;14.96;46.29;101679.75;102266;1332;72077;-83
2023/01/03 02:58:00;;;;;;;;;;;;;;;14.96;46.27;101676.05;102244;1330;61976;-82
2023/01/03 03:00:26;;;;;;;;;;;;;;;14.95;46.32;101680.31;102218;1332;62106;-83
2023/01/03 03:02:57;;;;;;;;;;;;;;;14.95;46.26;101688.46;102136;1329;60466;-82
2023/01/03 03:05:30;;;;;;;;;;;;;;;14.95;46.30;101686.16;102238;1326;73518;-82
2023/01/03 03:07:56;;;;;;;;;;;;;;;14.96;46.30;101683.48;102232;1332;74234;-83
2023/01/03 03:13:18;;;;;;;;;;;;;;;14.95;46.34;101680.15;102236;1323;62115;-83
2023/01/03 03:15:50;;;;;;;;;;;;;;;14.95;46.27;101677.67;102223;1329;73706;-83
2023/01/03 03:18:17;;;;;;;;;;;;;;;14.95;46.29;101675.89;102290;1324;76364;-83
2023/01/03 03:26:32;;;;;;;;;;;;;;;14.95;46.32;101675.02;102212;1333;71480;-83
2023/01/03 03:29:01;;;;;;;;;;;;;;;14.94;46.30;101675.20;102246;1323;76545;-83
2023/01/03 03:31:39;;;;;;;;;;;;;;;14.95;46.29;101673.59;102281;1326;60880;-83
2023/01/03 03:34:17;;;;;;;;;;;;;;;14.94;46.32;101671.65;102249;1332;62125;-82
2023/01/03 03:36:42;;;;;;;;;;;;;;;14.94;46.26;101671.48;102323;1317;72722;-82
2023/01/03 03:44:59;;;;;;;;;;;;;;;14.94;46.29;101664.58;102317;1324;62207;-83
2023/01/03 03:47:44;;;;;;;;;;;;;;;14.94;46.35;101669.89;102287;1326;72431;-83
2023/01/03 03:50:16;;;;;;;;;;;;;;;14.94;46.28;101670.27;102316;1331;75665;-83
2023/01/03 03:52:42;;;;;;;;;;;;;;;14.94;46.31;101672.39;102315;1329;62191;-83
2023/01/03 03:55:14;;;;;;;;;;;;;;;14.93;46.32;101669.02;102250;1327;62131;-82
2023/01/03 03:57:42;;;;;;;;;;;;;;;14.94;46.26;101670.62;102249;1332;73559;-82
2023/01/03 04:00:09;;;;;;;;;;;;;;;14.93;46.30;101671.52;102242;1329;75432;-82
2023/01/03 04:02:34;;;;;;;;;;;;;;;14.93;46.25;101671.88;102232;1333;60824;-82
2023/01/03 04:05:00;;;;;;;;;;;;;;;14.93;46.32;101668.15;102274;1323;62253;-82
2023/01/03 04:07:27;;;;;;;;;;;;;;;14.93;46.25;101666.73;102239;1326;60751;-82
2023/01/03 04:09:53;;;;;;;;;;;;;;;14.93;46.31;101671.17;102208;1326;62263;-83
2023/01/03 04:12:18;;;;;;;;;;;;;;;14.93;46.28;101668.68;102247;1330;62083;-82
2023/01/03 04:14:44;;;;;;;;;;;;;;;14.93;46.28;101667.81;102205;1332;62235;-83
2023/01/03 04:17:09;;;;;;;;;;;;;;;14.93;46.32;101669.95;102381;1333;62236;-82
2023/01/03 04:19:34;;;;;;;;;;;;;;;14.92;46.30;101667.47;102242;1327;72785;-82
2023/01/03 04:22:00;;;;;;;;;;;;;;;14.93;46.25;101668.88;102179;1332;60971;-83
2023/01/03 04:24:25;;;;;;;;;;;;;;;14.92;46.28;101670.13;102237;1329;62143;-83
2023/01/03 04:26:51;;;;;;;;;;;;;;;14.92;46.31;101669.60;102235;1329;62115;-83
2023/01/03 04:29:16;;;;;;;;;;;;;;;14.91;46.28;101671.40;102270;1332;62340;-83
2023/01/03 04:31:41;;;;;;;;;;;;;;;14.91;46.27;101671.92;102225;1332;62159;-82
2023/01/03 04:34:07;;;;;;;;;;;;;;;14.90;46.31;101671.58;102271;1330;62211;-82
2023/01/03 04:36:32;;;;;;;;;;;;;;;14.91;46.30;101676.17;102199;1327;62195;-82
2023/01/03 04:38:58;;;;;;;;;;;;;;;14.91;46.29;101679.73;102266;1330;62147;-83
2023/01/03 04:41:23;;;;;;;;;;;;;;;14.91;46.29;101678.67;102150;1333;62005;-81
2023/01/03 04:44:01;;;;;;;;;;;;;;;14.91;46.28;101678.15;102237;1327;62086;-82
2023/01/03 04:46:27;;;;;;;;;;;;;;;14.91;46.32;101683.29;102218;1329;75713;-81
2023/01/03 04:48:53;;;;;;;;;;;;;;;14.91;46.36;101687.55;102298;1332;62032;-81
2023/01/03 04:51:18;;;;;;;;;;;;;;;14.91;46.34;101688.78;102262;1332;62328;-83
2023/01/03 04:53:43;;;;;;;;;;;;;;;14.90;46.31;101691.27;102280;1333;60086;-82
2023/01/03 04:56:10;;;;;;;;;;;;;;;14.90;46.29;101693.92;102304;1327;62083;-82
2023/01/03 04:58:37;;;;;;;;;;;;;;;14.90;46.35;101694.46;102233;1332;62130;-82
2023/01/03 05:01:03;;;;;;;;;;;;;;;14.90;46.35;101696.23;102270;1333;62079;-83
2023/01/03 05:03:28;;;;;;;;;;;;;;;14.90;46.35;101700.85;102298;1334;62124;-82
2023/01/03 05:06:02;;;;;;;;;;;;;;;14.90;46.33;101700.48;102208;1319;73462;-82
2023/01/03 05:08:27;;;;;;;;;;;;;;;14.90;46.36;101702.08;102243;1332;76529;-82
2023/01/03 05:10:52;;;;;;;;;;;;;;;14.90;46.31;101704.91;102251;1323;62123;-82
2023/01/03 05:13:18;;;;;;;;;;;;;;;14.90;46.31;101704.56;102294;1329;62113;-82
2023/01/03 05:15:43;;;;;;;;;;;;;;;14.89;46.27;101705.48;102217;1327;62138;-82
2023/01/03 05:18:09;;;;;;;;;;;;;;;14.90;46.32;101704.91;102261;1332;62074;-82
2023/01/03 05:26:14;;;;;;;;;;;;;;;14.89;46.31;101701.59;102259;1333;62508;-82
2023/01/03 05:28:40;;;;;;;;;;;;;;;14.89;46.31;101704.75;102186;1324;72429;-83
2023/01/03 05:31:05;;;;;;;;;;;;;;;14.89;46.32;101702.66;102255;1332;62165;-82
2023/01/03 05:33:31;;;;;;;;;;;;;;;14.89;46.26;101703.86;102218;1332;62051;-82
2023/01/03 05:35:57;;;;;;;;;;;;;;;14.90;46.37;101705.83;102199;1329;62125;-82
2023/01/03 05:38:22;;;;;;;;;;;;;;;14.89;46.31;101705.98;102250;1329;62218;-83
2023/01/03 05:40:48;;;;;;;;;;;;;;;14.89;46.30;101701.75;102275;1331;62118;-82
2023/01/03 05:43:13;;;;;;;;;;;;;;;14.90;46.24;101702.80;102221;1333;60840;-83
2023/01/03 05:45:40;;;;;;;;;;;;;;;14.89;46.32;101703.52;102253;1333;62125;-82
2023/01/03 05:48:05;;;;;;;;;;;;;;;14.89;46.27;101699.64;102249;1326;61840;-82
2023/01/03 05:50:31;;;;;;;;;;;;;;;14.90;46.27;101705.64;102225;1316;62153;-82
2023/01/03 05:52:56;;;;;;;;;;;;;;;14.90;46.27;101707.24;102201;1327;62172;-82
2023/01/03 05:55:22;;;;;;;;;;;;;;;14.89;46.29;101710.44;102281;1330;62129;-82
2023/01/03 05:57:47;;;;;;;;;;;;;;;14.89;46.25;101710.28;102200;1323;62202;-82
2023/01/03 06:00:13;;;;;;;;;;;;;;;14.89;46.23;101709.91;102215;1330;62121;-82
2023/01/03 06:02:38;;;;;;;;;;;;;;;14.89;46.28;101708.67;102204;1325;62221;-82
2023/01/03 06:05:04;;;;;;;;;;;;;;;14.88;46.25;101708.34;102206;1328;62278;-82
2023/01/03 06:07:31;;;;;;;;;;;;;;;14.89;46.24;101712.94;102201;1333;62139;-82
2023/01/03 06:09:57;;;;;;;;;;;;;;;14.89;46.22;101711.70;102268;1327;62220;-82
2023/01/03 06:12:24;;;;;;;;;;;;;;;14.89;46.15;101714.17;102264;1327;62168;-82
2023/01/03 06:14:50;;;;;;;;;;;;;;;14.89;46.21;101711.50;102238;1332;73345;-81
2023/01/03 06:20:00;;;;;;;;;;;;;;;14.88;46.09;101719.68;102206;1329;62096;-83
2023/01/03 06:22:26;;;;;;;;;;;;;;;14.89;46.18;101722.69;102217;1323;62245;-83
2023/01/03 06:24:51;;;;;;;;;;;;;;;14.89;46.13;101723.92;102229;1332;62185;-82
2023/01/03 06:27:16;;;;;;;;;;;;;;;14.89;46.12;101724.46;102222;1327;62105;-82
2023/01/03 06:29:42;;;;;;;;;;;;;;;14.89;46.18;101727.83;102253;1331;62084;-82
2023/01/03 06:32:07;;;;;;;;;;;;;;;14.89;46.17;101729.25;102280;1325;62273;-82
2023/01/03 06:34:33;;;;;;;;;;;;;;;14.89;46.19;101731.53;102375;1332;62077;-82
2023/01/03 06:36:58;;;;;;;;;;;;;;;14.89;46.16;101734.21;102272;1326;62133;-82
2023/01/03 06:39:24;;;;;;;;;;;;;;;14.89;46.10;101735.97;102352;1324;62124;-82
2023/01/03 06:41:49;;;;;;;;;;;;;;;14.89;46.18;101736.51;102302;1329;62113;-82
2023/01/03 06:44:17;;;;;;;;;;;;;;;14.89;46.22;101734.73;102380;1329;61028;-82
2023/01/03 06:54:55;;;;;;;;;;;;;;;14.90;46.13;101737.89;102322;1324;62116;-82
2023/01/03 06:57:21;;;;;;;;;;;;;;;14.90;46.17;101734.86;102302;1318;62109;-82
2023/01/03 06:59:46;;;;;;;;;;;;;;;14.91;46.17;101740.88;102316;1318;63011;-83
2023/01/03 07:02:12;;;;;;;;;;;;;;;14.91;46.19;101741.95;102316;1317;60796;-82
2023/01/03 07:04:37;;;;;;;;;;;;;;;14.91;46.09;101739.45;102320;1331;60119;-82
2023/01/03 07:07:02;;;;;;;;;;;;;;;14.92;46.06;101740.68;102275;1329;62184;-82
2023/01/03 07:09:28;;;;;;;;;;;;;;;14.91;46.09;101735.56;102305;1316;62123;-82
2023/01/03 07:11:53;;;;;;;;;;;;;;;14.91;46.07;101738.58;102243;1318;62218;-82
2023/01/03 07:14:19;;;;;;;;;;;;;;;14.92;46.14;101737.48;102286;1327;62320;-82
2023/01/03 07:16:45;;;;;;;;;;;;;;;14.91;46.13;101742.29;102248;1316;62523;-82
2023/01/03 07:19:12;;;;;;;;;;;;;;;14.92;46.06;101744.06;102310;1318;62239;-82
2023/01/03 07:21:37;;;;;;;;;;;;;;;14.91;46.09;101740.00;102275;1324;62037;-82
2023/01/03 07:24:03;;;;;;;;;;;;;;;14.91;46.03;101740.36;102213;1327;62086;-82
2023/01/03 07:26:29;;;;;;;;;;;;;;;14.90;46.04;101740.89;102174;1325;62215;-82
2023/01/03 07:28:58;;;;;;;;;;;;;;;14.91;46.00;101743.01;102276;1317;62169;-82
2023/01/03 07:31:24;;;;;;;;;;;;;;;14.91;46.08;101741.05;102216;1318;62271;-82
2023/01/03 07:33:49;;;;;;;;;;;;;;;14.91;46.07;101739.81;102270;1325;60911;-82
2023/01/03 07:36:15;;;;;;;;;;;;;;;14.92;46.02;101740.86;102258;1325;62214;-82
2023/01/03 07:38:41;;;;;;;;;;;;;;;14.93;46.00;101744.57;102292;1326;62081;-83
2023/01/03 07:41:09;;;;;;;;;;;;;;;14.93;46.06;101745.44;102318;1313;60859;-83
2023/01/03 07:43:39;;;;;;;;;;;;;;;14.94;46.05;101746.83;102273;1326;61306;-83
2023/01/03 07:46:11;;;;;;;;;;;;;;;14.94;46.08;101749.12;102230;1320;71709;-83
2023/01/03 07:48:37;;;;;;;;;;;;;;;14.95;46.09;101754.95;102208;1326;75408;-82
2023/01/03 07:51:03;;;;;;;;;;;;;;;14.94;46.10;101754.63;102259;1326;62110;-83
2023/01/03 07:53:28;;;;;;;;;;;;;;;14.95;46.18;101759.21;102322;1316;62080;-82
2023/01/03 07:55:54;;;;;;;;;;;;;;;14.95;46.12;101763.81;102239;1332;62871;-82
2023/01/03 07:58:19;;;;;;;;;;;;;;;14.95;46.15;101755.48;102268;1324;62441;-83
2023/01/03 08:00:45;;;;;;;;;;;;;;;14.95;46.15;101753.89;102193;1329;77040;-83
2023/01/03 08:03:10;;;;;;;;;;;;;;;14.95;46.13;101753.70;102324;1323;62124;-83
2023/01/03 08:05:51;;;;;;;;;;;;;;;14.97;46.20;101749.05;101717;1336;599233;-81
2023/01/03 08:08:16;;;;;;;;;;;;;;;14.95;46.16;101752.28;101929;1320;59264;-82
2023/01/03 08:13:26;;;;;;;;;;;;;;;14.96;46.18;101753.50;101955;1324;59686;-83
2023/01/03 08:15:54;;;;;;;;;;;;;;;14.96;46.17;101751.73;101904;1327;59386;-83
2023/01/03 08:18:23;;;;;;;;;;;;;;;14.96;46.16;101756.34;101343;1320;854970;-83
2023/01/03 08:20:50;;;;;;;;;;;;;;;14.96;46.10;101756.34;102032;1330;59833;-83
2023/01/03 08:23:16;;;;;;;;;;;;;;;14.96;46.15;101756.85;102057;1321;61353;-83
2023/01/03 08:25:41;;;;;;;;;;;;;;;14.96;46.25;101757.76;102007;1331;59300;-83
2023/01/03 08:28:07;;;;;;;;;;;;;;;14.96;46.17;101754.20;102056;1330;59281;-82
2023/01/03 08:30:35;;;;;;;;;;;;;;;14.96;46.17;101751.35;102018;1324;59375;-82
2023/01/03 08:33:00;;;;;;;;;;;;;;;14.96;46.22;101748.70;102056;1330;59698;-82
2023/01/03 08:35:26;;;;;;;;;;;;;;;14.96;46.21;101745.53;102525;1313;59312;-82
2023/01/03 08:37:53;;;;;;;;;;;;;;;14.96;46.21;101744.80;102342;1334;59694;-83
2023/01/03 08:40:18;;;;;;;;;;;;;;;14.97;46.25;101745.14;102123;1321;59779;-82
2023/01/03 08:42:44;;;;;;;;;;;;;;;14.97;46.24;101744.44;102264;1327;65882;-83
2023/01/03 08:45:10;;;;;;;;;;;;;;;14.97;46.22;101742.66;102237;1326;60201;-83
2023/01/03 08:47:35;;;;;;;;;;;;;;;14.97;46.30;101740.35;102254;1331;59612;-82
2023/01/03 08:50:01;;;;;;;;;;;;;;;14.96;46.25;101737.16;102195;1316;59661;-83
2023/01/03 08:52:26;;;;;;;;;;;;;;;14.97;46.29;101735.21;102124;1326;59426;-82
2023/01/03 08:54:52;;;;;;;;;;;;;;;14.97;46.27;101736.11;102197;1328;59710;-82
2023/01/03 08:57:17;;;;;;;;;;;;;;;14.96;46.32;101728.84;102241;1326;59702;-82
2023/01/03 08:59:42;;;;;;;;;;;;;;;14.96;46.34;101729.19;102092;1321;59273;-83
2023/01/03 09:02:10;;;;;;;;;;;;;;;14.97;46.31;101728.83;102104;1331;59789;-83
2023/01/03 09:04:36;;;;;;;;;;;;;;;14.96;46.32;101727.78;102147;1321;59555;-82
2023/01/03 09:07:01;;;;;;;;;;;;;;;14.96;46.29;101723.17;102150;1321;59699;-83
2023/01/03 09:09:26;;;;;;;;;;;;;;;14.96;46.33;101720.00;102177;1313;59692;-82
2023/01/03 09:11:52;;;;;;;;;;;;;;;14.96;46.34;101716.28;102252;1333;58065;-83
2023/01/03 09:14:17;;;;;;;;;;;;;;;14.96;46.37;101714.48;102338;1318;59677;-83
2023/01/03 09:16:43;;;;;;;;;;;;;;;14.96;46.31;101710.77;102113;1321;59679;-82
2023/01/03 09:19:09;;;;;;;;;;;;;;;14.96;46.38;101706.86;102291;1326;59326;-82
2023/01/03 09:21:34;;;;;;;;;;;;;;;14.97;46.34;101707.20;102132;1321;59559;-83
2023/01/03 09:23:59;;;;;;;;;;;;;;;14.96;46.35;101699.95;102201;1334;59685;-82
2023/01/03 09:26:25;;;;;;;;;;;;;;;14.97;46.34;101696.91;102171;1321;59632;-83
2023/01/03 09:28:50;;;;;;;;;;;;;;;14.97;46.33;101694.44;102222;1330;59420;-82
2023/01/03 09:31:16;;;;;;;;;;;;;;;14.97;46.40;101692.83;102148;1318;59917;-83
2023/01/03 09:33:41;;;;;;;;;;;;;;;14.98;46.37;101691.21;102100;1337;59682;-83
2023/01/03 09:36:07;;;;;;;;;;;;;;;15.00;46.34;101688.48;102185;1318;58782;-81
2023/01/03 09:38:32;;;;;;;;;;;;;;;15.04;46.40;101688.36;102169;1330;59347;-83
2023/01/03 09:41:01;;;;;;;;;;;;;;;15.09;46.33;101679.86;102067;1329;59789;-83
2023/01/03 09:43:47;;;;;;;;;;;;;;;15.17;46.38;101675.73;102124;1321;59549;-83
2023/01/03 09:46:20;;;;;;;;;;;;;;;15.27;46.28;101672.94;102233;1326;72476;-82
2023/01/03 09:48:47;;;;;;;;;;;;;;;15.36;46.22;101670.66;102115;1329;72858;-82
2023/01/03 10:05:18;;;;;;;;;;;;;;;15.92;45.81;101655.65;102255;1334;60337;-82
2023/01/03 10:08:02;;;;;;;;;;;;;;;15.98;45.69;101658.79;102240;1323;59637;-82
2023/01/03 10:10:36;;;;;;;;;;;;;;;16.03;45.70;101654.55;102195;1321;73899;-82
2023/01/03 10:13:02;;;;;;;;;;;;;;;16.07;45.64;101654.92;102171;1326;59649;-82
2023/01/03 10:15:36;;;;;;;;;;;;;;;16.12;45.55;101653.17;102255;1330;59369;-83
2023/01/03 10:18:02;;;;;;;;;;;;;;;16.14;45.51;101650.23;102213;1316;72592;-82
2023/01/03 10:20:47;;;;;;;;;;;;;;;16.18;45.58;101645.49;102227;1318;59365;-82
2023/01/03 10:23:13;;;;;;;;;;;;;;;16.19;45.49;101641.86;102208;1329;59980;-82
2023/01/03 10:25:38;;;;;;;;;;;;;;;16.22;45.42;101638.39;102078;1337;59678;-82
2023/01/03 10:28:23;;;;;;;;;;;;;;;16.24;45.37;101634.57;102134;1330;59612;-83
2023/01/03 10:30:57;;;;;;;;;;;;;;;16.27;45.36;101634.31;102232;1316;72752;-82
2023/01/03 10:33:33;;;;;;;;;;;;;;;16.29;45.40;101627.30;102222;1327;60846;-82
2023/01/03 10:35:59;;;;;;;;;;;;;;;16.31;45.35;101623.69;102150;1321;61193;-82
2023/01/03 10:38:24;;;;;;;;;;;;;;;16.33;45.37;101622.17;102171;1330;59317;-84
2023/01/03 10:40:59;;;;;;;;;;;;;;;16.35;45.37;101616.25;102131;1330;59692;-83
2023/01/03 10:43:27;;;;;;;;;;;;;;;16.36;45.28;101615.66;102243;1333;59705;-84
2023/01/03 10:45:55;;;;;;;;;;;;;;;16.37;45.32;101614.02;102186;1330;60061;-83
2023/01/03 10:48:21;;;;;;;;;;;;;;;16.39;45.21;101611.13;102149;1333;71738;-83
2023/01/03 10:50:46;;;;;;;;;;;;;;;16.39;45.26;101607.92;102086;1334;59716;-83
2023/01/03 10:53:12;;;;;;;;;;;;;;;16.39;45.26;101610.60;102191;1327;59823;-83
2023/01/03 10:55:43;;;;;;;;;;;;;;;16.37;45.23;101607.98;102125;1326;59702;-83
2023/01/03 10:58:14;;;;;;;;;;;;;;;16.36;45.28;101600.76;102121;1334;71511;-83
2023/01/03 11:00:41;;;;;;;;;;;;;;;16.33;45.29;101602.45;102278;1335;72062;-84
2023/01/03 11:03:11;;;;;;;;;;;;;;;16.31;45.33;101603.27;102278;1333;60797;-83
2023/01/03 11:05:37;;;;;;;;;;;;;;;16.29;45.36;101607.06;102194;1327;61195;-83
2023/01/03 11:08:03;;;;;;;;;;;;;;;16.26;45.36;101604.87;102213;1330;59714;-83
2023/01/03 11:10:31;;;;;;;;;;;;;;;16.22;45.36;101601.09;102181;1329;59565;-83
2023/01/03 11:12:57;;;;;;;;;;;;;;;16.20;45.43;101600.99;102197;1329;59746;-83
2023/01/03 11:15:31;;;;;;;;;;;;;;;16.17;45.46;101597.18;102204;1329;59686;-85
2023/01/03 11:17:58;;;;;;;;;;;;;;;16.15;45.51;101603.52;102243;1332;73715;-83
2023/01/03 11:20:47;;;;;;;;;;;;;;;16.12;45.49;101602.91;102193;1326;59305;-84
2023/01/03 11:23:17;;;;;;;;;;;;;;;16.08;45.45;101601.27;102133;1329;61062;-84
2023/01/03 11:25:42;;;;;;;;;;;;;;;16.06;45.57;101601.54;102095;1329;60068;-83
2023/01/03 11:28:28;;;;;;;;;;;;;;;16.03;45.65;101597.38;102228;1330;59703;-84
2023/01/03 11:31:12;;;;;;;;;;;;;;;16.00;45.57;101593.41;102238;1334;73109;-84
2023/01/03 11:33:47;;;;;;;;;;;;;;;15.96;45.65;101591.23;102209;1333;59944;-83
2023/01/03 11:36:21;;;;;;;;;;;;;;;15.93;45.64;101592.58;102207;1332;60479;-83
2023/01/03 11:39:16;;;;;;;;;;;;;;;15.90;45.62;101591.61;102248;1326;73514;-83
2023/01/03 11:41:58;;;;;;;;;;;;;;;15.88;45.76;101592.08;101927;1326;72811;-83
2023/01/03 11:44:38;;;;;;;;;;;;;;;15.85;45.64;101592.19;101842;1335;59581;-83
2023/01/03 11:47:04;;;;;;;;;;;;;;;15.82;45.67;101589.79;101806;1335;60361;-83
2023/01/03 11:50:08;;;;;;;;;;;;;;;15.81;45.76;101587.38;101857;1341;59682;-83
2023/01/03 11:52:42;;;;;;;;;;;;;;;15.78;45.79;101581.92;101478;1339;72973;-83
2023/01/03 11:55:37;;;;;;;;;;;;;;;15.76;45.84;101586.06;101424;1341;59619;-83
2023/01/03 11:58:15;;;;;;;;;;;;;;;15.74;45.86;101568.92;101344;1345;61383;-83
2023/01/03 12:00:43;;;;;;;;;;;;;;;15.72;45.84;101564.36;101404;1332;73884;-83
2023/01/03 12:03:27;;;;;;;;;;;;;;;15.71;45.89;101560.70;101388;1340;73891;-84
2023/01/03 12:05:55;;;;;;;;;;;;;;;15.70;45.93;101568.35;101579;1341;59833;-83
2023/01/03 12:08:30;;;;;;;;;;;;;;;15.68;45.89;101566.81;101424;1341;61366;-84
2023/01/03 12:10:58;;;;;;;;;;;;;;;15.68;45.93;101569.34;101586;1338;72579;-84
2023/01/03 12:13:23;;;;;;;;;;;;;;;15.67;45.91;101571.51;101574;1338;73083;-83
2023/01/03 12:15:49;;;;;;;;;;;;;;;15.65;45.99;101565.34;101570;1338;59701;-83
2023/01/03 12:18:17;;;;;;;;;;;;;;;15.64;45.98;101566.42;101725;1338;58312;-83
2023/01/03 12:20:44;;;;;;;;;;;;;;;15.63;45.95;101565.78;101874;1340;60965;-84
2023/01/03 12:23:19;;;;;;;;;;;;;;;15.62;46.01;101573.27;101698;1334;59310;-83
2023/01/03 12:25:46;;;;;;;;;;;;;;;15.60;46.06;101574.40;102128;1337;60405;-84
2023/01/03 12:28:21;;;;;;;;;;;;;;;15.59;46.06;101575.67;102149;1330;60422;-84
2023/01/03 12:30:50;;;;;;;;;;;;;;;15.58;46.10;101578.55;102140;1329;73502;-83
2023/01/03 12:33:16;;;;;;;;;;;;;;;15.56;46.06;101583.20;102173;1327;74901;-84
2023/01/03 12:35:51;;;;;;;;;;;;;;;15.55;46.09;101585.92;102152;1333;60482;-83
2023/01/03 12:38:17;;;;;;;;;;;;;;;15.54;46.04;101590.03;102188;1327;60402;-83
2023/01/03 12:40:58;;;;;;;;;;;;;;;15.54;46.15;101591.66;102104;1329;60605;-83
2023/01/03 12:43:24;;;;;;;;;;;;;;;15.53;46.20;101588.66;102115;1333;74497;-83
2023/01/03 12:45:51;;;;;;;;;;;;;;;15.52;46.15;101590.64;102211;1329;60512;-83
2023/01/03 12:48:36;;;;;;;;;;;;;;;15.51;46.15;101597.79;102195;1329;60429;-83
2023/01/03 12:51:01;;;;;;;;;;;;;;;15.50;46.19;101601.19;102244;1327;73548;-84
2023/01/03 12:53:39;;;;;;;;;;;;;;;15.49;46.17;101601.73;102128;1326;60575;-83
2023/01/03 12:56:23;;;;;;;;;;;;;;;15.49;46.21;101603.91;102248;1329;60480;-83
2023/01/03 12:59:18;;;;;;;;;;;;;;;15.48;46.22;101606.07;102175;1321;60475;-83
2023/01/03 13:01:57;;;;;;;;;;;;;;;15.47;46.26;101611.77;102137;1330;72811;-83
2023/01/03 13:04:36;;;;;;;;;;;;;;;15.46;46.23;101611.27;102135;1327;73270;-83
2023/01/03 13:07:14;;;;;;;;;;;;;;;15.46;46.28;101612.33;102205;1326;60553;-83
2023/01/03 13:09:42;;;;;;;;;;;;;;;15.46;46.23;101610.02;102167;1334;60866;-83
2023/01/03 13:12:10;;;;;;;;;;;;;;;15.45;46.26;101614.30;102064;1334;72654;-83
2023/01/03 13:14:56;;;;;;;;;;;;;;;15.44;46.27;101618.23;102106;1334;74747;-83
2023/01/03 13:17:27;;;;;;;;;;;;;;;15.44;46.32;101624.09;102155;1329;60399;-83
2023/01/03 13:19:56;;;;;;;;;;;;;;;15.43;46.27;101626.08;102087;1333;60455;-83
2023/01/03 13:22:21;;;;;;;;;;;;;;;15.44;46.29;101628.90;102172;1327;72772;-83
2023/01/03 13:24:48;;;;;;;;;;;;;;;15.43;46.31;101625.02;102163;1329;60642;-84
2023/01/03 13:27:16;;;;;;;;;;;;;;;15.42;46.35;101629.64;102233;1324;60347;-83